< < Back
Terminal Aerodrome Forecast


Current Version              Previous Versions:   1  2  3  4  5  6  7  8  9  

Terminal Aerodrome Forecast

103
FTUS42 KFFC 042112 AAB
TAFFTY
TAF AMD
KFTY 042112Z 0421/0518 VRB04KT P6SM VCSH SCT050 SCT250
      TEMPO 0421/0423 VRB20G35KT 2SM TSRA BKN050CB
     FM042300 04003KT P6SM SCT060 SCT250
     FM050500 04003KT P6SM SCT110
     FM051400 08006KT P6SM SCT050=

Latest METAR

795
SAUS70 KWBC 051000 RRC
MTRFTY
METAR KFTY 050953Z 05006KT 9SM CLR 22/20 A3006 RMK AO2 SLP172
T02220200


USA.gov is the U.S. government's official web portal to all federal, state and local government web resources and services.